sensor_id;sensor_type;location;lat;lon;timestamp;pressure;altitude;pressure_sealevel;temperature;humidity
72210;BME280;60113;48.762;12.302;2023-12-20T00:01:21;97181.84;;;0.85;100.00
72210;BME280;60113;48.762;12.302;2023-12-20T00:03:48;97189.59;;;0.85;100.00
72210;BME280;60113;48.762;12.302;2023-12-20T00:06:14;97180.88;;;0.87;100.00
72210;BME280;60113;48.762;12.302;2023-12-20T00:08:42;97179.09;;;0.90;100.00
72210;BME280;60113;48.762;12.302;2023-12-20T00:11:10;97177.31;;;0.90;100.00
72210;BME280;60113;48.762;12.302;2023-12-20T00:13:40;97171.31;;;0.90;100.00
72210;BME280;60113;48.762;12.302;2023-12-20T00:16:05;97167.94;;;0.87;100.00
72210;BME280;60113;48.762;12.302;2023-12-20T00:18:34;97173.22;;;0.84;100.00
72210;BME280;60113;48.762;12.302;2023-12-20T00:20:59;97167.19;;;0.84;100.00
72210;BME280;60113;48.762;12.302;2023-12-20T00:23:24;97167.16;;;0.85;100.00
72210;BME280;60113;48.762;12.302;2023-12-20T00:25:50;97171.31;;;0.90;100.00
72210;BME280;60113;48.762;12.302;2023-12-20T00:28:15;97168.56;;;0.94;100.00
72210;BME280;60113;48.762;12.302;2023-12-20T00:30:41;97170.91;;;1.01;100.00
72210;BME280;60113;48.762;12.302;2023-12-20T00:33:06;97153.31;;;1.09;100.00
72210;BME280;60113;48.762;12.302;2023-12-20T00:35:31;97146.97;;;1.18;100.00
72210;BME280;60113;48.762;12.302;2023-12-20T00:37:58;97140.63;;;1.25;100.00
72210;BME280;60113;48.762;12.302;2023-12-20T00:40:24;97140.25;;;1.34;100.00
72210;BME280;60113;48.762;12.302;2023-12-20T00:42:49;97137.41;;;1.41;100.00
72210;BME280;60113;48.762;12.302;2023-12-20T00:45:15;97138.91;;;1.46;100.00
72210;BME280;60113;48.762;12.302;2023-12-20T00:47:40;97125.03;;;1.47;100.00
72210;BME280;60113;48.762;12.302;2023-12-20T00:50:06;97120.59;;;1.51;100.00
72210;BME280;60113;48.762;12.302;2023-12-20T00:52:32;97128.09;;;1.57;100.00
72210;BME280;60113;48.762;12.302;2023-12-20T00:54:57;97124.41;;;1.63;100.00
72210;BME280;60113;48.762;12.302;2023-12-20T00:57:23;97124.28;;;1.66;100.00
72210;BME280;60113;48.762;12.302;2023-12-20T00:59:48;97125.91;;;1.69;100.00
72210;BME280;60113;48.762;12.302;2023-12-20T01:02:14;97129.19;;;1.72;100.00
72210;BME280;60113;48.762;12.302;2023-12-20T01:04:39;97120.53;;;1.73;100.00
72210;BME280;60113;48.762;12.302;2023-12-20T01:07:05;97115.38;;;1.73;100.00
72210;BME280;60113;48.762;12.302;2023-12-20T01:09:30;97127.47;;;1.73;100.00
72210;BME280;60113;48.762;12.302;2023-12-20T01:11:56;97133.56;;;1.72;100.00
72210;BME280;60113;48.762;12.302;2023-12-20T01:14:21;97118.16;;;1.69;100.00
72210;BME280;60113;48.762;12.302;2023-12-20T01:16:47;97108.72;;;1.66;100.00
72210;BME280;60113;48.762;12.302;2023-12-20T01:19:15;97112.25;;;1.65;100.00
72210;BME280;60113;48.762;12.302;2023-12-20T01:21:41;97114.91;;;1.64;100.00
72210;BME280;60113;48.762;12.302;2023-12-20T01:24:07;97117.63;;;1.60;100.00
72210;BME280;60113;48.762;12.302;2023-12-20T01:26:32;97122.94;;;1.57;100.00
72210;BME280;60113;48.762;12.302;2023-12-20T01:28:58;97127.38;;;1.54;100.00
72210;BME280;60113;48.762;12.302;2023-12-20T01:31:23;97118.00;;;1.51;100.00
72210;BME280;60113;48.762;12.302;2023-12-20T01:33:50;97115.47;;;1.49;100.00
72210;BME280;60113;48.762;12.302;2023-12-20T01:36:15;97109.56;;;1.46;100.00
72210;BME280;60113;48.762;12.302;2023-12-20T01:38:41;97106.41;;;1.39;100.00
72210;BME280;60113;48.762;12.302;2023-12-20T01:41:07;97099.81;;;1.32;100.00
72210;BME280;60113;48.762;12.302;2023-12-20T01:43:32;97097.66;;;1.21;100.00
72210;BME280;60113;48.762;12.302;2023-12-20T01:45:58;97105.66;;;1.15;100.00
72210;BME280;60113;48.762;12.302;2023-12-20T01:48:24;97102.59;;;1.05;100.00
72210;BME280;60113;48.762;12.302;2023-12-20T01:50:51;97102.91;;;0.97;100.00
72210;BME280;60113;48.762;12.302;2023-12-20T01:53:17;97113.44;;;0.92;100.00
72210;BME280;60113;48.762;12.302;2023-12-20T01:55:44;97095.50;;;0.87;100.00
72210;BME280;60113;48.762;12.302;2023-12-20T01:58:10;97099.06;;;0.85;100.00
72210;BME280;60113;48.762;12.302;2023-12-20T02:00:37;97097.34;;;0.84;100.00
72210;BME280;60113;48.762;12.302;2023-12-20T02:03:06;97100.91;;;0.81;100.00
72210;BME280;60113;48.762;12.302;2023-12-20T02:05:35;97097.34;;;0.84;100.00
72210;BME280;60113;48.762;12.302;2023-12-20T02:08:02;97094.00;;;0.82;100.00
72210;BME280;60113;48.762;12.302;2023-12-20T02:10:28;97089.78;;;0.79;100.00
72210;BME280;60113;48.762;12.302;2023-12-20T02:12:54;97082.06;;;0.78;100.00
72210;BME280;60113;48.762;12.302;2023-12-20T02:15:19;97087.38;;;0.74;100.00
72210;BME280;60113;48.762;12.302;2023-12-20T02:17:46;97085.75;;;0.72;100.00
72210;BME280;60113;48.762;12.302;2023-12-20T02:20:12;97075.41;;;0.72;100.00
72210;BME280;60113;48.762;12.302;2023-12-20T02:22:37;97071.16;;;0.71;100.00
72210;BME280;60113;48.762;12.302;2023-12-20T02:25:03;97074.56;;;0.71;100.00
72210;BME280;60113;48.762;12.302;2023-12-20T02:27:30;97074.56;;;0.71;100.00
72210;BME280;60113;48.762;12.302;2023-12-20T02:29:57;97074.59;;;0.70;100.00
72210;BME280;60113;48.762;12.302;2023-12-20T02:32:24;97069.50;;;0.68;100.00
72210;BME280;60113;48.762;12.302;2023-12-20T02:34:53;97064.47;;;0.65;100.00
72210;BME280;60113;48.762;12.302;2023-12-20T02:37:19;97051.66;;;0.62;100.00
72210;BME280;60113;48.762;12.302;2023-12-20T02:39:44;97047.44;;;0.59;100.00
72210;BME280;60113;48.762;12.302;2023-12-20T02:42:10;97035.47;;;0.57;100.00
72210;BME280;60113;48.762;12.302;2023-12-20T02:44:36;97039.16;;;0.51;100.00
72210;BME280;60113;48.762;12.302;2023-12-20T02:47:02;97043.69;;;0.44;100.00
72210;BME280;60113;48.762;12.302;2023-12-20T02:49:28;97043.03;;;0.39;100.00
72210;BME280;60113;48.762;12.302;2023-12-20T02:51:57;97037.91;;;0.37;100.00
72210;BME280;60113;48.762;12.302;2023-12-20T02:54:22;97037.22;;;0.34;100.00
72210;BME280;60113;48.762;12.302;2023-12-20T02:56:48;97034.75;;;0.31;100.00
72210;BME280;60113;48.762;12.302;2023-12-20T02:59:13;97042.56;;;0.29;100.00
72210;BME280;60113;48.762;12.302;2023-12-20T03:01:44;97046.03;;;0.28;100.00
72210;BME280;60113;48.762;12.302;2023-12-20T03:04:10;97045.19;;;0.28;100.00
72210;BME280;60113;48.762;12.302;2023-12-20T03:06:36;97046.97;;;0.26;100.00
72210;BME280;60113;48.762;12.302;2023-12-20T03:09:01;97051.31;;;0.25;100.00
72210;BME280;60113;48.762;12.302;2023-12-20T03:11:27;97039.28;;;0.24;100.00
72210;BME280;60113;48.762;12.302;2023-12-20T03:13:53;97045.38;;;0.23;100.00
72210;BME280;60113;48.762;12.302;2023-12-20T03:16:19;97030.75;;;0.22;100.00
72210;BME280;60113;48.762;12.302;2023-12-20T03:18:44;97035.03;;;0.23;100.00
72210;BME280;60113;48.762;12.302;2023-12-20T03:21:10;97026.44;;;0.22;100.00
72210;BME280;60113;48.762;12.302;2023-12-20T03:23:35;97024.75;;;0.21;100.00
72210;BME280;60113;48.762;12.302;2023-12-20T03:26:01;97029.88;;;0.23;100.00
72210;BME280;60113;48.762;12.302;2023-12-20T03:28:27;97033.25;;;0.23;100.00
72210;BME280;60113;48.762;12.302;2023-12-20T03:30:52;97036.66;;;0.26;100.00
72210;BME280;60113;48.762;12.302;2023-12-20T03:33:18;97030.44;;;0.30;100.00
72210;BME280;60113;48.762;12.302;2023-12-20T03:35:43;97024.16;;;0.37;100.00
72210;BME280;60113;48.762;12.302;2023-12-20T03:38:09;97028.13;;;0.46;100.00
72210;BME280;60113;48.762;12.302;2023-12-20T03:40:34;97028.50;;;0.59;100.00
72210;BME280;60113;48.762;12.302;2023-12-20T03:43:00;97017.59;;;0.73;100.00
72210;BME280;60113;48.762;12.302;2023-12-20T03:45:25;97012.84;;;0.84;100.00
72210;BME280;60113;48.762;12.302;2023-12-20T03:47:51;97020.09;;;0.97;100.00
72210;BME280;60113;48.762;12.302;2023-12-20T03:50:22;97013.56;;;1.09;100.00
72210;BME280;60113;48.762;12.302;2023-12-20T03:52:47;97016.63;;;1.19;100.00
72210;BME280;60113;48.762;12.302;2023-12-20T03:55:13;97016.09;;;1.31;100.00
72210;BME280;60113;48.762;12.302;2023-12-20T03:57:38;97010.47;;;1.42;100.00
72210;BME280;60113;48.762;12.302;2023-12-20T04:00:05;97013.56;;;1.50;100.00
72210;BME280;60113;48.762;12.302;2023-12-20T04:02:38;97012.28;;;1.61;100.00
72210;BME280;60113;48.762;12.302;2023-12-20T04:05:05;97019.72;;;1.69;100.00
72210;BME280;60113;48.762;12.302;2023-12-20T04:07:31;97027.22;;;1.75;100.00
72210;BME280;60113;48.762;12.302;2023-12-20T04:09:56;97026.03;;;1.82;100.00
72210;BME280;60113;48.762;12.302;2023-12-20T04:12:22;97032.66;;;1.88;100.00
72210;BME280;60113;48.762;12.302;2023-12-20T04:14:47;97031.78;;;1.89;100.00
72210;BME280;60113;48.762;12.302;2023-12-20T04:17:14;97033.31;;;1.93;100.00
72210;BME280;60113;48.762;12.302;2023-12-20T04:19:42;97028.91;;;1.95;100.00
72210;BME280;60113;48.762;12.302;2023-12-20T04:22:08;97037.50;;;1.96;100.00
72210;BME280;60113;48.762;12.302;2023-12-20T04:24:33;97036.69;;;1.95;100.00
72210;BME280;60113;48.762;12.302;2023-12-20T04:26:58;97034.91;;;1.96;100.00
72210;BME280;60113;48.762;12.302;2023-12-20T04:29:24;97045.28;;;1.96;100.00
72210;BME280;60113;48.762;12.302;2023-12-20T04:31:49;97050.53;;;1.94;100.00
72210;BME280;60113;48.762;12.302;2023-12-20T04:34:16;97048.81;;;1.95;100.00
72210;BME280;60113;48.762;12.302;2023-12-20T04:36:42;97054.06;;;1.93;100.00
72210;BME280;60113;48.762;12.302;2023-12-20T04:39:08;97063.56;;;1.93;100.00
72210;BME280;60113;48.762;12.302;2023-12-20T04:41:33;97061.97;;;1.90;100.00
72210;BME280;60113;48.762;12.302;2023-12-20T04:43:58;97065.59;;;1.86;100.00
72210;BME280;60113;48.762;12.302;2023-12-20T04:46:24;97067.34;;;1.85;100.00
72210;BME280;60113;48.762;12.302;2023-12-20T04:48:49;97069.16;;;1.83;100.00
72210;BME280;60113;48.762;12.302;2023-12-20T04:51:15;97061.38;;;1.83;100.00
72210;BME280;60113;48.762;12.302;2023-12-20T04:53:41;97071.81;;;1.82;100.00
72210;BME280;60113;48.762;12.302;2023-12-20T04:56:06;97068.47;;;1.80;100.00
72210;BME280;60113;48.762;12.302;2023-12-20T04:58:32;97069.41;;;1.77;100.00
72210;BME280;60113;48.762;12.302;2023-12-20T05:00:57;97066.91;;;1.75;100.00
72210;BME280;60113;48.762;12.302;2023-12-20T05:03:23;97072.13;;;1.74;100.00
72210;BME280;60113;48.762;12.302;2023-12-20T05:05:48;97076.50;;;1.73;100.00
72210;BME280;60113;48.762;12.302;2023-12-20T05:08:13;97075.72;;;1.71;100.00
72210;BME280;60113;48.762;12.302;2023-12-20T05:10:39;97074.09;;;1.69;100.00
72210;BME280;60113;48.762;12.302;2023-12-20T05:13:05;97070.59;;;1.70;100.00
72210;BME280;60113;48.762;12.302;2023-12-20T05:15:31;97068.06;;;1.68;100.00
72210;BME280;60113;48.762;12.302;2023-12-20T05:17:56;97077.59;;;1.68;100.00
72210;BME280;60113;48.762;12.302;2023-12-20T05:20:22;97075.91;;;1.67;100.00
72210;BME280;60113;48.762;12.302;2023-12-20T05:22:48;97086.34;;;1.65;100.00
72210;BME280;60113;48.762;12.302;2023-12-20T05:25:13;97085.56;;;1.63;100.00
72210;BME280;60113;48.762;12.302;2023-12-20T05:27:39;97089.19;;;1.59;100.00
72210;BME280;60113;48.762;12.302;2023-12-20T05:30:05;97100.47;;;1.58;100.00
72210;BME280;60113;48.762;12.302;2023-12-20T05:32:31;97098.69;;;1.58;100.00
72210;BME280;60113;48.762;12.302;2023-12-20T05:34:56;97100.47;;;1.58;100.00
72210;BME280;60113;48.762;12.302;2023-12-20T05:37:21;97097.75;;;1.61;100.00
72210;BME280;60113;48.762;12.302;2023-12-20T05:39:47;97105.59;;;1.59;100.00
72210;BME280;60113;48.762;12.302;2023-12-20T05:42:12;97107.25;;;1.60;100.00
72210;BME280;60113;48.762;12.302;2023-12-20T05:44:38;97100.28;;;1.62;100.00
72210;BME280;60113;48.762;12.302;2023-12-20T05:47:03;97103.69;;;1.63;100.00
72210;BME280;60113;48.762;12.302;2023-12-20T05:49:32;97107.97;;;1.64;100.00
72210;BME280;60113;48.762;12.302;2023-12-20T05:51:57;97104.53;;;1.64;100.00
72210;BME280;60113;48.762;12.302;2023-12-20T05:54:22;97102.81;;;1.64;100.00
72210;BME280;60113;48.762;12.302;2023-12-20T05:56:48;97113.16;;;1.64;100.00
72210;BME280;60113;48.762;12.302;2023-12-20T05:59:14;97109.66;;;1.65;100.00
72210;BME280;60113;48.762;12.302;2023-12-20T06:01:39;97120.88;;;1.66;100.00
72210;BME280;60113;48.762;12.302;2023-12-20T06:04:06;97118.34;;;1.64;100.00
72210;BME280;60113;48.762;12.302;2023-12-20T06:06:31;97124.34;;;1.65;100.00
72210;BME280;60113;48.762;12.302;2023-12-20T06:09:00;97124.28;;;1.66;100.00
72210;BME280;60113;48.762;12.302;2023-12-20T06:11:26;97122.53;;;1.67;100.00
72210;BME280;60113;48.762;12.302;2023-12-20T06:13:51;97130.25;;;1.68;100.00
72210;BME280;60113;48.762;12.302;2023-12-20T06:16:18;97135.38;;;1.70;100.00
72210;BME280;60113;48.762;12.302;2023-12-20T06:18:44;97132.84;;;1.68;100.00
72210;BME280;60113;48.762;12.302;2023-12-20T06:21:09;97133.63;;;1.70;100.00
72210;BME280;60113;48.762;12.302;2023-12-20T06:23:38;97138.75;;;1.72;100.00
72210;BME280;60113;48.762;12.302;2023-12-20T06:26:03;97143.00;;;1.73;100.00
72210;BME280;60113;48.762;12.302;2023-12-20T06:28:29;97136.84;;;1.75;100.00
72210;BME280;60113;48.762;12.302;2023-12-20T06:30:55;97144.63;;;1.75;100.00
72210;BME280;60113;48.762;12.302;2023-12-20T06:33:20;97141.19;;;1.75;100.00
72210;BME280;60113;48.762;12.302;2023-12-20T06:35:47;97145.47;;;1.76;100.00
72210;BME280;60113;48.762;12.302;2023-12-20T06:38:12;97154.16;;;1.75;100.00
72210;BME280;60113;48.762;12.302;2023-12-20T06:40:38;97154.16;;;1.75;100.00
72210;BME280;60113;48.762;12.302;2023-12-20T06:43:04;97167.94;;;1.75;100.00
72210;BME280;60113;48.762;12.302;2023-12-20T06:45:29;97166.19;;;1.76;100.00
72210;BME280;60113;48.762;12.302;2023-12-20T06:47:56;97169.63;;;1.77;100.00
72210;BME280;60113;48.762;12.302;2023-12-20T06:50:21;97175.59;;;1.79;100.00
72210;BME280;60113;48.762;12.302;2023-12-20T06:52:47;97169.44;;;1.81;100.00
72210;BME280;60113;48.762;12.302;2023-12-20T06:55:12;97165.03;;;1.83;100.00
72210;BME280;60113;48.762;12.302;2023-12-20T06:57:38;97159.03;;;1.83;100.00
72210;BME280;60113;48.762;12.302;2023-12-20T07:00:04;97163.16;;;1.87;100.00
72210;BME280;60113;48.762;12.302;2023-12-20T07:02:29;97175.13;;;1.90;100.00
72210;BME280;60113;48.762;12.302;2023-12-20T07:04:55;97171.59;;;1.92;100.00
72210;BME280;60113;48.762;12.302;2023-12-20T07:07:21;97186.22;;;1.93;100.00
72210;BME280;60113;48.762;12.302;2023-12-20T07:09:49;97199.06;;;1.96;100.00
72210;BME280;60113;48.762;12.302;2023-12-20T07:12:15;97189.53;;;1.97;100.00
72210;BME280;60113;48.762;12.302;2023-12-20T07:14:40;97199.00;;;1.98;100.00
72210;BME280;60113;48.762;12.302;2023-12-20T07:17:06;97202.44;;;1.98;100.00
72210;BME280;60113;48.762;12.302;2023-12-20T07:19:37;97199.69;;;2.02;100.00
72210;BME280;60113;48.762;12.302;2023-12-20T07:22:04;97191.84;;;2.03;100.00
72210;BME280;60113;48.762;12.302;2023-12-20T07:24:30;97199.63;;;2.03;100.00
72210;BME280;60113;48.762;12.302;2023-12-20T07:26:55;97213.38;;;2.05;100.00
72210;BME280;60113;48.762;12.302;2023-12-20T07:29:20;97206.38;;;2.07;100.00
72210;BME280;60113;48.762;12.302;2023-12-20T07:31:46;97204.53;;;2.09;100.00
72210;BME280;60113;48.762;12.302;2023-12-20T07:34:12;97209.66;;;2.11;100.00
72210;BME280;60113;48.762;12.302;2023-12-20T07:36:37;97208.78;;;2.12;100.00
72210;BME280;60113;48.762;12.302;2023-12-20T07:39:03;97215.63;;;2.13;100.00
72210;BME280;60113;48.762;12.302;2023-12-20T07:41:28;97213.91;;;2.14;100.00
72210;BME280;60113;48.762;12.302;2023-12-20T07:43:53;97221.66;;;2.14;100.00
72210;BME280;60113;48.762;12.302;2023-12-20T07:46:20;97226.84;;;2.14;100.00
72210;BME280;60113;48.762;12.302;2023-12-20T07:48:48;97225.03;;;2.16;100.00
72210;BME280;60113;48.762;12.302;2023-12-20T07:51:14;97239.63;;;2.18;100.00
72210;BME280;60113;48.762;12.302;2023-12-20T07:53:39;97232.66;;;2.19;100.00
72210;BME280;60113;48.762;12.302;2023-12-20T07:56:18;97240.38;;;2.20;100.00
72210;BME280;60113;48.762;12.302;2023-12-20T07:58:44;97243.03;;;2.19;100.00
72210;BME280;60113;48.762;12.302;2023-12-20T08:01:11;97240.44;;;2.19;100.00
72210;BME280;60113;48.762;12.302;2023-12-20T08:03:37;97245.63;;;2.19;100.00
72210;BME280;60113;48.762;12.302;2023-12-20T08:06:03;97244.75;;;2.20;100.00
72210;BME280;60113;48.762;12.302;2023-12-20T08:08:28;97245.50;;;2.22;100.00
72210;BME280;60113;48.762;12.302;2023-12-20T08:10:54;97255.94;;;2.20;100.00
72210;BME280;60113;48.762;12.302;2023-12-20T08:13:19;97250.75;;;2.20;100.00
72210;BME280;60113;48.762;12.302;2023-12-20T08:15:45;97262.84;;;2.21;100.00
72210;BME280;60113;48.762;12.302;2023-12-20T08:18:10;97259.31;;;2.22;100.00
72210;BME280;60113;48.762;12.302;2023-12-20T08:20:36;97246.34;;;2.22;100.00
72210;BME280;60113;48.762;12.302;2023-12-20T08:23:02;97249.88;;;2.21;100.00
72210;BME280;60113;48.762;12.302;2023-12-20T08:25:27;97236.00;;;2.22;100.00
72210;BME280;60113;48.762;12.302;2023-12-20T08:27:53;97243.75;;;2.22;100.00
72210;BME280;60113;48.762;12.302;2023-12-20T08:30:18;97248.09;;;2.22;100.00
72210;BME280;60113;48.762;12.302;2023-12-20T08:32:49;97248.16;;;2.20;100.00
72210;BME280;60113;48.762;12.302;2023-12-20T08:35:15;97249.09;;;2.19;100.00
72210;BME280;60113;48.762;12.302;2023-12-20T08:37:40;97257.72;;;2.20;100.00
72210;BME280;60113;48.762;12.302;2023-12-20T08:40:06;97262.91;;;2.20;100.00
72210;BME280;60113;48.762;12.302;2023-12-20T08:42:32;97262.78;;;2.23;100.00
72210;BME280;60113;48.762;12.302;2023-12-20T08:44:58;97267.81;;;2.26;100.00
72210;BME280;60113;48.762;12.302;2023-12-20T08:47:26;97266.78;;;2.30;100.00
72210;BME280;60113;48.762;12.302;2023-12-20T08:49:52;97265.81;;;2.33;100.00
72210;BME280;60113;48.762;12.302;2023-12-20T08:52:22;97270.84;;;2.36;100.00
72210;BME280;60113;48.762;12.302;2023-12-20T08:54:49;97258.59;;;2.40;100.00
72210;BME280;60113;48.762;12.302;2023-12-20T08:57:20;97261.94;;;2.43;100.00
72210;BME280;60113;48.762;12.302;2023-12-20T08:59:47;97257.44;;;2.47;100.00
72210;BME280;60113;48.762;12.302;2023-12-20T09:02:12;97251.28;;;2.49;100.00
72210;BME280;60113;48.762;12.302;2023-12-20T09:04:38;97257.22;;;2.52;100.00
72210;BME280;60113;48.762;12.302;2023-12-20T09:07:05;97260.53;;;2.55;100.00
72210;BME280;60113;48.762;12.302;2023-12-20T09:09:30;97264.75;;;2.58;100.00
72210;BME280;60113;48.762;12.302;2023-12-20T09:11:57;97262.03;;;2.61;100.00
72210;BME280;60113;48.762;12.302;2023-12-20T09:14:23;97259.28;;;2.64;100.00
72210;BME280;60113;48.762;12.302;2023-12-20T09:16:48;97257.63;;;2.63;100.00
72210;BME280;60113;48.762;12.302;2023-12-20T09:19:19;97261.81;;;2.66;100.00
72210;BME280;60113;48.762;12.302;2023-12-20T09:21:44;97256.63;;;2.66;100.00
72210;BME280;60113;48.762;12.302;2023-12-20T09:24:10;97258.41;;;2.65;100.00
72210;BME280;60113;48.762;12.302;2023-12-20T09:26:35;97261.00;;;2.65;100.00
72210;BME280;60113;48.762;12.302;2023-12-20T09:29:00;97260.16;;;2.65;100.00
72210;BME280;60113;48.762;12.302;2023-12-20T09:31:26;97269.59;;;2.66;100.00
72210;BME280;60113;48.762;12.302;2023-12-20T09:33:52;97271.31;;;2.67;100.00
72210;BME280;60113;48.762;12.302;2023-12-20T09:36:17;97269.53;;;2.67;100.00
72210;BME280;60113;48.762;12.302;2023-12-20T09:38:42;97260.75;;;2.70;100.00
72210;BME280;60113;48.762;12.302;2023-12-20T09:41:08;97266.75;;;2.72;100.00
72210;BME280;60113;48.762;12.302;2023-12-20T09:43:37;97274.41;;;2.75;100.00
72210;BME280;60113;48.762;12.302;2023-12-20T09:46:05;97266.53;;;2.77;100.00
72210;BME280;60113;48.762;12.302;2023-12-20T09:48:31;97264.81;;;2.77;100.00
72210;BME280;60113;48.762;12.302;2023-12-20T09:50:58;97271.59;;;2.80;100.00
72210;BME280;60113;48.762;12.302;2023-12-20T09:53:24;97268.09;;;2.81;100.00
72210;BME280;60113;48.762;12.302;2023-12-20T09:55:57;97246.34;;;2.83;100.00
72210;BME280;60113;48.762;12.302;2023-12-20T09:58:23;97256.66;;;2.85;100.00
72210;BME280;60113;48.762;12.302;2023-12-20T10:00:49;97260.94;;;2.86;100.00
72210;BME280;60113;48.762;12.302;2023-12-20T10:03:15;97259.19;;;2.86;100.00
72210;BME280;60113;48.762;12.302;2023-12-20T10:05:43;97252.25;;;2.87;100.00
72210;BME280;60113;48.762;12.302;2023-12-20T10:08:10;97243.56;;;2.88;100.00
72210;BME280;60113;48.762;12.302;2023-12-20T10:10:35;97240.97;;;2.88;100.00
72210;BME280;60113;48.762;12.302;2023-12-20T10:13:11;97247.81;;;2.89;100.00
72210;BME280;60113;48.762;12.302;2023-12-20T10:15:37;97246.09;;;2.90;100.00
72210;BME280;60113;48.762;12.302;2023-12-20T10:18:04;97247.69;;;2.92;100.00
72210;BME280;60113;48.762;12.302;2023-12-20T10:20:30;97256.34;;;2.93;100.00
72210;BME280;60113;48.762;12.302;2023-12-20T10:22:57;97255.47;;;2.92;100.00
72210;BME280;60113;48.762;12.302;2023-12-20T10:25:23;97249.44;;;2.92;100.00
72210;BME280;60113;48.762;12.302;2023-12-20T10:27:50;97246.63;;;2.96;100.00
72210;BME280;60113;48.762;12.302;2023-12-20T10:30:15;97245.53;;;3.02;100.00
72210;BME280;60113;48.762;12.302;2023-12-20T10:32:41;97253.03;;;3.08;100.00
72210;BME280;60113;48.762;12.302;2023-12-20T10:35:07;97244.13;;;3.14;100.00
72210;BME280;60113;48.762;12.302;2023-12-20T10:37:37;97237.78;;;3.20;100.00
72210;BME280;60113;48.762;12.302;2023-12-20T10:40:04;97224.75;;;3.21;100.00
72210;BME280;60113;48.762;12.302;2023-12-20T10:42:31;97216.94;;;3.21;100.00
72210;BME280;60113;48.762;12.302;2023-12-20T10:44:59;97217.78;;;3.22;100.00
72210;BME280;60113;48.762;12.302;2023-12-20T10:47:25;97224.59;;;3.24;100.00
72210;BME280;60113;48.762;12.302;2023-12-20T10:49:52;97220.09;;;3.28;100.00
72210;BME280;60113;48.762;12.302;2023-12-20T10:52:18;97220.81;;;3.32;100.00
72210;BME280;60113;48.762;12.302;2023-12-20T10:54:44;97210.34;;;3.33;100.00
72210;BME280;60113;48.762;12.302;2023-12-20T10:57:10;97207.66;;;3.35;100.00
72210;BME280;60113;48.762;12.302;2023-12-20T10:59:37;97211.03;;;3.37;100.00
72210;BME280;60113;48.762;12.302;2023-12-20T11:02:04;97218.75;;;3.38;100.00
72210;BME280;60113;48.762;12.302;2023-12-20T11:04:53;97211.81;;;3.39;100.00
72210;BME280;60113;48.762;12.302;2023-12-20T11:07:36;97190.19;;;3.38;100.00
72210;BME280;60113;48.762;12.302;2023-12-20T11:11:25;97198.19;;;3.34;100.00
72210;BME280;60113;48.762;12.302;2023-12-20T11:13:31;97200.25;;;3.27;100.00
72210;BME280;60113;48.762;12.302;2023-12-20T11:15:58;97204.47;;;3.10;100.00
72210;BME280;60113;48.762;12.302;2023-12-20T11:18:31;97222.38;;;2.97;100.00
72210;BME280;60113;48.762;12.302;2023-12-20T11:21:15;97230.78;;;2.83;100.00
72210;BME280;60113;48.762;12.302;2023-12-20T11:23:42;97230.22;;;2.77;100.00
72210;BME280;60113;48.762;12.302;2023-12-20T11:26:08;97219.97;;;2.73;100.00
72210;BME280;60113;48.762;12.302;2023-12-20T11:28:33;97215.69;;;2.72;100.00
72210;BME280;60113;48.762;12.302;2023-12-20T11:31:01;97212.25;;;2.72;100.00
72210;BME280;60113;48.762;12.302;2023-12-20T11:33:36;97214.00;;;2.71;100.00
72210;BME280;60113;48.762;12.302;2023-12-20T11:36:03;97203.84;;;2.67;100.00
72210;BME280;60113;48.762;12.302;2023-12-20T11:38:38;97207.47;;;2.62;100.00
72210;BME280;60113;48.762;12.302;2023-12-20T11:41:07;97192.75;;;2.63;100.00
72210;BME280;60113;48.762;12.302;2023-12-20T11:43:36;97191.75;;;2.66;100.00
72210;BME280;60113;48.762;12.302;2023-12-20T11:46:08;97189.16;;;2.66;100.00
72210;BME280;60113;48.762;12.302;2023-12-20T11:48:37;97200.41;;;2.66;100.00
72210;BME280;60113;48.762;12.302;2023-12-20T11:51:02;97184.84;;;2.66;100.00
72210;BME280;60113;48.762;12.302;2023-12-20T11:53:34;97187.16;;;2.72;100.00
72210;BME280;60113;48.762;12.302;2023-12-20T11:56:00;97190.50;;;2.74;100.00
72210;BME280;60113;48.762;12.302;2023-12-20T11:58:28;97182.66;;;2.76;100.00
72210;BME280;60113;48.762;12.302;2023-12-20T12:00:55;97180.75;;;2.80;100.00
72210;BME280;60113;48.762;12.302;2023-12-20T12:03:20;97189.19;;;2.85;100.00
72210;BME280;60113;48.762;12.302;2023-12-20T12:05:47;97183.72;;;2.91;100.00
72210;BME280;60113;48.762;12.302;2023-12-20T12:08:13;97176.91;;;3.08;100.00
72210;BME280;60113;48.762;12.302;2023-12-20T12:10:39;97182.88;;;3.28;100.00
72210;BME280;60113;48.762;12.302;2023-12-20T12:13:05;97176.66;;;3.49;100.00
72210;BME280;60113;48.762;12.302;2023-12-20T12:15:30;97176.69;;;3.67;100.00
72210;BME280;60113;48.762;12.302;2023-12-20T12:17:56;97175.94;;;3.83;100.00
72210;BME280;60113;48.762;12.302;2023-12-20T12:20:23;97170.19;;;3.94;100.00
72210;BME280;60113;48.762;12.302;2023-12-20T12:23:02;97169.25;;;4.12;100.00
72210;BME280;60113;48.762;12.302;2023-12-20T12:25:32;97165.28;;;4.23;100.00
72210;BME280;60113;48.762;12.302;2023-12-20T12:27:58;97164.78;;;4.32;100.00
72210;BME280;60113;48.762;12.302;2023-12-20T12:30:25;97162.03;;;4.35;100.00
72210;BME280;60113;48.762;12.302;2023-12-20T12:32:53;97157.41;;;4.41;100.00
72210;BME280;60113;48.762;12.302;2023-12-20T12:35:20;97152.91;;;4.44;100.00
72210;BME280;60113;48.762;12.302;2023-12-20T12:37:45;97156.59;;;4.40;98.93
72210;BME280;60113;48.762;12.302;2023-12-20T12:40:15;97155.25;;;4.49;98.70
72210;BME280;60113;48.762;12.302;2023-12-20T12:42:42;97164.66;;;4.52;100.00
72210;BME280;60113;48.762;12.302;2023-12-20T12:45:09;97154.16;;;4.53;100.00
72210;BME280;60113;48.762;12.302;2023-12-20T12:47:36;97159.38;;;4.53;98.48